YTEF/TEF METAR and TAF weather

Enter ICAO airport designator
Station Type Date Time Source
YTEF METAR 2020/12/05 05:00 UTC NOAA

YTEF 050500Z AUTO 22007KT 190V260 9999 // NCD 41/14 Q1007


Station Type Date Time Source
YTEF Decoded METAR 2020/12/05 05:00 UTC NOAA

Station name not available
Dec 05, 2020 - 12:00 AM EST / 2020.12.05 0500 UTC
Wind: from the SW (220 degrees) at 8 MPH (7 KT) (direction variable):0
Visibility: greater than 7 mile(s):0
Temperature: 105 F (41 C)
Heat index: 104.4 F (40.2 C):1
Dew Point: 57 F (14 C)
Relative Humidity: 20%
Pressure (altimeter): 29.74 in. Hg (1007 hPa)
ob: YTEF 050500Z AUTO 22007KT 190V260 9999 // NCD 41/14 Q1007
cycle: 5

Station Type Date Time Source
YTEF TAF 2017/06/24 02:03 UTC NOAA

TAF TAF YTEF 240051Z 2402/2414 12005KT CAVOK
FM240500 33005KT 9999 -SHRA SCT060 BKN100

Example: see airport list